sensor_id;sensor_type;location;lat;lon;timestamp;temperature;humidity
33095;DHT22;19459;53.044;8.910;2023-05-10T01:46:56;14.70;98.50
33095;DHT22;19459;53.044;8.910;2023-05-10T01:49:32;14.70;98.10
33095;DHT22;19459;53.044;8.910;2023-05-10T01:52:08;14.60;98.30
33095;DHT22;19459;53.044;8.910;2023-05-10T01:54:42;14.60;98.00
33095;DHT22;19459;53.044;8.910;2023-05-10T01:57:13;14.60;98.20
33095;DHT22;19459;53.044;8.910;2023-05-10T01:59:40;14.60;98.70
33095;DHT22;19459;53.044;8.910;2023-05-10T02:02:10;14.60;99.00
33095;DHT22;19459;53.044;8.910;2023-05-10T02:04:39;14.60;99.30
33095;DHT22;19459;53.044;8.910;2023-05-10T02:07:06;14.50;99.80
33095;DHT22;19459;53.044;8.910;2023-05-10T02:09:33;14.50;99.90
33095;DHT22;19459;53.044;8.910;2023-05-10T02:12:02;14.50;99.70
33095;DHT22;19459;53.044;8.910;2023-05-10T02:14:35;14.50;99.60
33095;DHT22;19459;53.044;8.910;2023-05-10T02:17:04;14.40;99.70
33095;DHT22;19459;53.044;8.910;2023-05-10T02:19:32;14.40;99.70
33095;DHT22;19459;53.044;8.910;2023-05-10T02:21:59;14.40;99.90
33095;DHT22;19459;53.044;8.910;2023-05-10T02:24:26;14.40;99.40
33095;DHT22;19459;53.044;8.910;2023-05-10T02:26:54;14.40;99.40
33095;DHT22;19459;53.044;8.910;2023-05-10T02:29:25;14.40;99.10
33095;DHT22;19459;53.044;8.910;2023-05-10T02:31:54;14.30;99.40
33095;DHT22;19459;53.044;8.910;2023-05-10T02:34:22;14.30;99.40
33095;DHT22;19459;53.044;8.910;2023-05-10T02:36:49;14.30;99.50
33095;DHT22;19459;53.044;8.910;2023-05-10T02:39:18;14.20;99.60
33095;DHT22;19459;53.044;8.910;2023-05-10T02:41:46;14.20;99.70
33095;DHT22;19459;53.044;8.910;2023-05-10T02:44:15;14.20;99.90
33095;DHT22;19459;53.044;8.910;2023-05-10T02:46:43;14.20;99.90
33095;DHT22;19459;53.044;8.910;2023-05-10T02:49:09;14.20;99.90
33095;DHT22;19459;53.044;8.910;2023-05-10T02:51:49;14.20;99.90
33095;DHT22;19459;53.044;8.910;2023-05-10T02:54:24;14.10;99.90
33095;DHT22;19459;53.044;8.910;2023-05-10T02:56:58;14.10;99.90
33095;DHT22;19459;53.044;8.910;2023-05-10T02:59:27;14.10;99.90
33095;DHT22;19459;53.044;8.910;2023-05-10T03:01:53;14.10;99.90
33095;DHT22;19459;53.044;8.910;2023-05-10T03:04:19;14.10;99.90
33095;DHT22;19459;53.044;8.910;2023-05-10T03:06:45;14.10;99.90
33095;DHT22;19459;53.044;8.910;2023-05-10T03:09:12;14.10;99.90
33095;DHT22;19459;53.044;8.910;2023-05-10T03:14:53;14.00;99.90
33095;DHT22;19459;53.044;8.910;2023-05-10T03:17:39;14.00;99.90
33095;DHT22;19459;53.044;8.910;2023-05-10T03:20:11;14.00;99.90
33095;DHT22;19459;53.044;8.910;2023-05-10T03:22:49;14.10;99.90
33095;DHT22;19459;53.044;8.910;2023-05-10T03:25:19;14.00;99.90
33095;DHT22;19459;53.044;8.910;2023-05-10T03:27:47;14.00;99.90
33095;DHT22;19459;53.044;8.910;2023-05-10T03:30:13;14.00;99.90
33095;DHT22;19459;53.044;8.910;2023-05-10T03:32:40;13.90;99.90
33095;DHT22;19459;53.044;8.910;2023-05-10T03:35:09;13.90;99.90
33095;DHT22;19459;53.044;8.910;2023-05-10T03:37:35;13.90;99.90
33095;DHT22;19459;53.044;8.910;2023-05-10T03:40:02;13.90;99.90
33095;DHT22;19459;53.044;8.910;2023-05-10T03:42:28;13.90;99.90
33095;DHT22;19459;53.044;8.910;2023-05-10T03:44:55;13.80;99.90
33095;DHT22;19459;53.044;8.910;2023-05-10T03:47:20;13.90;99.90
33095;DHT22;19459;53.044;8.910;2023-05-10T03:49:46;13.80;99.90
33095;DHT22;19459;53.044;8.910;2023-05-10T03:52:12;13.80;99.90
33095;DHT22;19459;53.044;8.910;2023-05-10T03:54:38;13.70;99.90
33095;DHT22;19459;53.044;8.910;2023-05-10T03:57:04;13.80;99.90
33095;DHT22;19459;53.044;8.910;2023-05-10T03:59:29;13.70;99.90
33095;DHT22;19459;53.044;8.910;2023-05-10T04:01:55;13.70;99.90
33095;DHT22;19459;53.044;8.910;2023-05-10T04:04:21;13.60;99.90
33095;DHT22;19459;53.044;8.910;2023-05-10T04:06:48;13.60;99.90
33095;DHT22;19459;53.044;8.910;2023-05-10T04:09:14;13.60;99.90
33095;DHT22;19459;53.044;8.910;2023-05-10T04:11:40;13.60;99.90
33095;DHT22;19459;53.044;8.910;2023-05-10T04:14:06;13.60;99.90
33095;DHT22;19459;53.044;8.910;2023-05-10T04:16:32;13.60;99.90
33095;DHT22;19459;53.044;8.910;2023-05-10T04:18:57;13.60;99.90
33095;DHT22;19459;53.044;8.910;2023-05-10T04:21:23;13.60;99.90
33095;DHT22;19459;53.044;8.910;2023-05-10T04:23:49;13.50;99.90
33095;DHT22;19459;53.044;8.910;2023-05-10T04:26:15;13.60;99.90
33095;DHT22;19459;53.044;8.910;2023-05-10T04:28:41;13.50;99.90
33095;DHT22;19459;53.044;8.910;2023-05-10T04:31:09;13.60;99.90
33095;DHT22;19459;53.044;8.910;2023-05-10T04:33:35;13.50;99.90
33095;DHT22;19459;53.044;8.910;2023-05-10T04:36:02;13.40;99.90
33095;DHT22;19459;53.044;8.910;2023-05-10T04:38:28;13.40;99.90
33095;DHT22;19459;53.044;8.910;2023-05-10T04:40:54;13.40;99.90
33095;DHT22;19459;53.044;8.910;2023-05-10T04:43:29;13.30;99.90
33095;DHT22;19459;53.044;8.910;2023-05-10T04:45:56;13.30;99.90
33095;DHT22;19459;53.044;8.910;2023-05-10T04:48:22;13.30;99.90
33095;DHT22;19459;53.044;8.910;2023-05-10T04:50:48;13.20;99.90
33095;DHT22;19459;53.044;8.910;2023-05-10T04:53:14;13.20;99.90
33095;DHT22;19459;53.044;8.910;2023-05-10T04:55:39;13.20;99.90
33095;DHT22;19459;53.044;8.910;2023-05-10T04:58:05;13.20;99.90
33095;DHT22;19459;53.044;8.910;2023-05-10T05:00:33;13.10;99.90
33095;DHT22;19459;53.044;8.910;2023-05-10T05:02:59;13.10;99.90
33095;DHT22;19459;53.044;8.910;2023-05-10T05:05:25;13.10;99.90
33095;DHT22;19459;53.044;8.910;2023-05-10T05:07:50;13.20;99.90
33095;DHT22;19459;53.044;8.910;2023-05-10T05:10:16;13.10;99.90
33095;DHT22;19459;53.044;8.910;2023-05-10T05:12:42;13.10;99.90
33095;DHT22;19459;53.044;8.910;2023-05-10T05:15:08;13.10;99.90
33095;DHT22;19459;53.044;8.910;2023-05-10T05:17:35;13.10;99.90
33095;DHT22;19459;53.044;8.910;2023-05-10T05:20:01;13.00;99.90
33095;DHT22;19459;53.044;8.910;2023-05-10T05:22:27;13.00;99.90
33095;DHT22;19459;53.044;8.910;2023-05-10T05:24:54;12.80;99.90
33095;DHT22;19459;53.044;8.910;2023-05-10T05:27:20;12.80;99.90
33095;DHT22;19459;53.044;8.910;2023-05-10T05:29:52;12.70;99.90
33095;DHT22;19459;53.044;8.910;2023-05-10T05:32:18;12.70;99.90
33095;DHT22;19459;53.044;8.910;2023-05-10T05:34:45;12.70;99.90
33095;DHT22;19459;53.044;8.910;2023-05-10T05:37:15;12.70;99.90
33095;DHT22;19459;53.044;8.910;2023-05-10T05:39:42;12.60;99.90
33095;DHT22;19459;53.044;8.910;2023-05-10T05:42:09;12.60;99.90
33095;DHT22;19459;53.044;8.910;2023-05-10T05:44:35;12.60;99.90
33095;DHT22;19459;53.044;8.910;2023-05-10T05:47:01;12.60;99.90
33095;DHT22;19459;53.044;8.910;2023-05-10T05:49:27;12.50;99.90
33095;DHT22;19459;53.044;8.910;2023-05-10T05:51:52;12.50;99.90
33095;DHT22;19459;53.044;8.910;2023-05-10T05:54:18;12.50;99.90
33095;DHT22;19459;53.044;8.910;2023-05-10T05:56:44;12.50;99.90
33095;DHT22;19459;53.044;8.910;2023-05-10T05:59:11;12.40;99.90
33095;DHT22;19459;53.044;8.910;2023-05-10T06:01:37;12.30;99.90
33095;DHT22;19459;53.044;8.910;2023-05-10T06:04:02;12.30;99.90
33095;DHT22;19459;53.044;8.910;2023-05-10T06:06:28;12.30;99.90
33095;DHT22;19459;53.044;8.910;2023-05-10T06:08:54;12.40;99.90
33095;DHT22;19459;53.044;8.910;2023-05-10T06:11:20;12.40;99.90
33095;DHT22;19459;53.044;8.910;2023-05-10T06:13:47;12.30;99.90
33095;DHT22;19459;53.044;8.910;2023-05-10T06:16:13;12.20;99.90
33095;DHT22;19459;53.044;8.910;2023-05-10T06:18:39;12.00;99.90
33095;DHT22;19459;53.044;8.910;2023-05-10T06:21:05;11.90;99.90
33095;DHT22;19459;53.044;8.910;2023-05-10T06:23:30;12.00;99.90
33095;DHT22;19459;53.044;8.910;2023-05-10T06:25:56;12.00;99.90
33095;DHT22;19459;53.044;8.910;2023-05-10T06:28:22;12.10;99.90
33095;DHT22;19459;53.044;8.910;2023-05-10T06:30:48;12.10;99.90
33095;DHT22;19459;53.044;8.910;2023-05-10T06:33:14;12.20;99.90
33095;DHT22;19459;53.044;8.910;2023-05-10T06:35:41;12.30;99.90
33095;DHT22;19459;53.044;8.910;2023-05-10T06:38:07;12.20;99.90
33095;DHT22;19459;53.044;8.910;2023-05-10T06:40:32;12.10;99.90
33095;DHT22;19459;53.044;8.910;2023-05-10T06:42:58;12.10;99.90
33095;DHT22;19459;53.044;8.910;2023-05-10T06:45:24;12.00;99.90
33095;DHT22;19459;53.044;8.910;2023-05-10T06:47:50;12.10;99.90
33095;DHT22;19459;53.044;8.910;2023-05-10T06:50:15;12.00;99.90
33095;DHT22;19459;53.044;8.910;2023-05-10T06:52:42;12.10;99.90
33095;DHT22;19459;53.044;8.910;2023-05-10T06:55:08;12.10;99.90
33095;DHT22;19459;53.044;8.910;2023-05-10T06:57:34;12.10;99.90
33095;DHT22;19459;53.044;8.910;2023-05-10T07:00:00;12.10;99.90
33095;DHT22;19459;53.044;8.910;2023-05-10T07:02:26;12.10;99.90
33095;DHT22;19459;53.044;8.910;2023-05-10T07:04:52;12.00;99.90
33095;DHT22;19459;53.044;8.910;2023-05-10T07:07:18;12.00;99.90
33095;DHT22;19459;53.044;8.910;2023-05-10T07:09:44;12.10;99.90
33095;DHT22;19459;53.044;8.910;2023-05-10T07:12:10;12.00;99.90
33095;DHT22;19459;53.044;8.910;2023-05-10T07:14:36;12.10;99.90
33095;DHT22;19459;53.044;8.910;2023-05-10T07:17:02;12.20;99.90
33095;DHT22;19459;53.044;8.910;2023-05-10T07:19:28;12.20;99.90
33095;DHT22;19459;53.044;8.910;2023-05-10T07:21:54;12.40;99.90
33095;DHT22;19459;53.044;8.910;2023-05-10T07:24:21;12.40;99.90
33095;DHT22;19459;53.044;8.910;2023-05-10T07:26:46;12.50;99.90
33095;DHT22;19459;53.044;8.910;2023-05-10T07:29:12;12.50;99.90
33095;DHT22;19459;53.044;8.910;2023-05-10T07:31:38;12.60;99.90
33095;DHT22;19459;53.044;8.910;2023-05-10T07:34:04;12.70;99.90
33095;DHT22;19459;53.044;8.910;2023-05-10T07:36:30;12.70;99.90
33095;DHT22;19459;53.044;8.910;2023-05-10T07:38:56;12.80;99.90
33095;DHT22;19459;53.044;8.910;2023-05-10T07:41:22;12.90;99.90
33095;DHT22;19459;53.044;8.910;2023-05-10T07:43:48;13.00;99.90
33095;DHT22;19459;53.044;8.910;2023-05-10T07:46:14;12.90;99.90
33095;DHT22;19459;53.044;8.910;2023-05-10T07:48:40;12.80;99.90
33095;DHT22;19459;53.044;8.910;2023-05-10T07:51:06;12.80;99.90
33095;DHT22;19459;53.044;8.910;2023-05-10T07:53:34;12.90;99.90
33095;DHT22;19459;53.044;8.910;2023-05-10T07:56:26;13.00;99.90
33095;DHT22;19459;53.044;8.910;2023-05-10T07:58:55;12.90;99.90
33095;DHT22;19459;53.044;8.910;2023-05-10T08:01:22;13.00;99.90
33095;DHT22;19459;53.044;8.910;2023-05-10T08:03:48;13.10;99.90
33095;DHT22;19459;53.044;8.910;2023-05-10T08:06:17;13.10;99.90
33095;DHT22;19459;53.044;8.910;2023-05-10T08:08:46;13.20;99.90
33095;DHT22;19459;53.044;8.910;2023-05-10T08:11:18;13.40;99.90
33095;DHT22;19459;53.044;8.910;2023-05-10T08:13:45;13.60;99.90
33095;DHT22;19459;53.044;8.910;2023-05-10T08:16:10;13.80;99.90
33095;DHT22;19459;53.044;8.910;2023-05-10T08:18:37;13.90;99.90
33095;DHT22;19459;53.044;8.910;2023-05-10T08:21:04;14.00;99.90
33095;DHT22;19459;53.044;8.910;2023-05-10T08:23:30;14.00;99.90
33095;DHT22;19459;53.044;8.910;2023-05-10T08:25:56;13.90;99.90
33095;DHT22;19459;53.044;8.910;2023-05-10T08:28:22;14.10;99.90
33095;DHT22;19459;53.044;8.910;2023-05-10T08:30:49;14.10;99.90
33095;DHT22;19459;53.044;8.910;2023-05-10T08:33:15;14.30;99.90
33095;DHT22;19459;53.044;8.910;2023-05-10T08:35:42;14.50;99.90
33095;DHT22;19459;53.044;8.910;2023-05-10T08:38:08;14.60;99.90
33095;DHT22;19459;53.044;8.910;2023-05-10T08:40:34;14.70;99.90
33095;DHT22;19459;53.044;8.910;2023-05-10T08:43:06;14.90;99.90
33095;DHT22;19459;53.044;8.910;2023-05-10T08:45:41;14.90;99.90
33095;DHT22;19459;53.044;8.910;2023-05-10T08:48:10;15.00;99.90
33095;DHT22;19459;53.044;8.910;2023-05-10T08:50:37;15.10;99.90
33095;DHT22;19459;53.044;8.910;2023-05-10T08:53:09;15.20;99.90
33095;DHT22;19459;53.044;8.910;2023-05-10T08:55:36;15.30;99.90
33095;DHT22;19459;53.044;8.910;2023-05-10T08:58:06;15.40;99.90
33095;DHT22;19459;53.044;8.910;2023-05-10T09:00:33;15.40;99.90
33095;DHT22;19459;53.044;8.910;2023-05-10T09:02:59;15.30;99.90
33095;DHT22;19459;53.044;8.910;2023-05-10T09:05:25;15.30;99.90
33095;DHT22;19459;53.044;8.910;2023-05-10T09:07:52;15.40;99.90
33095;DHT22;19459;53.044;8.910;2023-05-10T09:10:18;15.50;99.90
33095;DHT22;19459;53.044;8.910;2023-05-10T09:12:45;15.60;99.90
33095;DHT22;19459;53.044;8.910;2023-05-10T09:15:13;15.60;99.90
33095;DHT22;19459;53.044;8.910;2023-05-10T09:17:41;15.60;99.90
33095;DHT22;19459;53.044;8.910;2023-05-10T09:20:07;15.70;99.90
33095;DHT22;19459;53.044;8.910;2023-05-10T09:22:34;15.90;99.90
33095;DHT22;19459;53.044;8.910;2023-05-10T09:27:30;16.50;99.90
33095;DHT22;19459;53.044;8.910;2023-05-10T09:29:56;16.50;99.90
33095;DHT22;19459;53.044;8.910;2023-05-10T09:32:36;16.30;99.90
33095;DHT22;19459;53.044;8.910;2023-05-10T09:35:14;16.20;99.90
33095;DHT22;19459;53.044;8.910;2023-05-10T09:37:44;16.10;99.90
33095;DHT22;19459;53.044;8.910;2023-05-10T09:40:15;16.00;99.90
33095;DHT22;19459;53.044;8.910;2023-05-10T09:42:57;16.10;99.90
33095;DHT22;19459;53.044;8.910;2023-05-10T09:45:27;16.20;99.90
33095;DHT22;19459;53.044;8.910;2023-05-10T09:47:55;16.20;99.90
33095;DHT22;19459;53.044;8.910;2023-05-10T09:50:21;16.10;99.90
33095;DHT22;19459;53.044;8.910;2023-05-10T09:55:21;16.00;99.90
33095;DHT22;19459;53.044;8.910;2023-05-10T09:57:49;16.10;99.90
33095;DHT22;19459;53.044;8.910;2023-05-10T10:00:24;16.30;99.90
33095;DHT22;19459;53.044;8.910;2023-05-10T10:02:56;16.50;99.90
33095;DHT22;19459;53.044;8.910;2023-05-10T10:05:35;16.90;99.90
33095;DHT22;19459;53.044;8.910;2023-05-10T10:08:03;17.00;99.90
33095;DHT22;19459;53.044;8.910;2023-05-10T10:10:31;16.80;99.90
33095;DHT22;19459;53.044;8.910;2023-05-10T10:12:58;16.70;99.90
33095;DHT22;19459;53.044;8.910;2023-05-10T10:15:25;16.50;99.90
33095;DHT22;19459;53.044;8.910;2023-05-10T10:17:52;16.40;99.90
33095;DHT22;19459;53.044;8.910;2023-05-10T10:20:21;16.40;99.90
33095;DHT22;19459;53.044;8.910;2023-05-10T10:22:48;16.40;99.90
33095;DHT22;19459;53.044;8.910;2023-05-10T10:25:15;16.30;99.90
33095;DHT22;19459;53.044;8.910;2023-05-10T10:36:30;16.10;99.90
33095;DHT22;19459;53.044;8.910;2023-05-10T10:39:00;16.00;99.90
33095;DHT22;19459;53.044;8.910;2023-05-10T10:41:29;16.10;99.90
33095;DHT22;19459;53.044;8.910;2023-05-10T10:50:03;16.40;99.90
33095;DHT22;19459;53.044;8.910;2023-05-10T10:52:35;17.00;99.90
33095;DHT22;19459;53.044;8.910;2023-05-10T10:55:17;17.40;99.90
33095;DHT22;19459;53.044;8.910;2023-05-10T10:57:52;17.40;99.90
33095;DHT22;19459;53.044;8.910;2023-05-10T11:00:23;17.20;99.90
33095;DHT22;19459;53.044;8.910;2023-05-10T11:03:08;16.80;99.90
33095;DHT22;19459;53.044;8.910;2023-05-10T11:05:51;16.30;99.90
33095;DHT22;19459;53.044;8.910;2023-05-10T11:08:31;16.30;99.90
33095;DHT22;19459;53.044;8.910;2023-05-10T11:18:59;16.60;99.90
33095;DHT22;19459;53.044;8.910;2023-05-10T11:21:29;16.80;99.90
33095;DHT22;19459;53.044;8.910;2023-05-10T11:23:57;16.70;99.90
33095;DHT22;19459;53.044;8.910;2023-05-10T11:26:25;16.60;99.90
33095;DHT22;19459;53.044;8.910;2023-05-10T11:28:59;16.90;99.90
33095;DHT22;19459;53.044;8.910;2023-05-10T11:31:27;16.90;99.90
33095;DHT22;19459;53.044;8.910;2023-05-10T11:33:56;17.20;99.90
33095;DHT22;19459;53.044;8.910;2023-05-10T11:36:33;17.50;99.90
33095;DHT22;19459;53.044;8.910;2023-05-10T11:39:00;17.50;99.90
33095;DHT22;19459;53.044;8.910;2023-05-10T11:41:28;17.10;99.90
33095;DHT22;19459;53.044;8.910;2023-05-10T11:43:56;17.40;99.90
33095;DHT22;19459;53.044;8.910;2023-05-10T11:46:24;17.70;99.90
33095;DHT22;19459;53.044;8.910;2023-05-10T11:48:54;18.00;99.90
33095;DHT22;19459;53.044;8.910;2023-05-10T11:51:23;17.90;99.90
33095;DHT22;19459;53.044;8.910;2023-05-10T11:53:52;18.10;99.90
33095;DHT22;19459;53.044;8.910;2023-05-10T11:56:19;18.20;99.90
33095;DHT22;19459;53.044;8.910;2023-05-10T11:58:54;18.20;99.90
33095;DHT22;19459;53.044;8.910;2023-05-10T12:01:21;17.70;99.90
33095;DHT22;19459;53.044;8.910;2023-05-10T12:03:50;17.50;99.90
33095;DHT22;19459;53.044;8.910;2023-05-10T12:06:20;17.20;99.90
33095;DHT22;19459;53.044;8.910;2023-05-10T12:08:47;17.20;99.90
33095;DHT22;19459;53.044;8.910;2023-05-10T12:11:14;17.40;99.90
33095;DHT22;19459;53.044;8.910;2023-05-10T12:13:43;17.50;99.90
33095;DHT22;19459;53.044;8.910;2023-05-10T12:16:20;17.20;99.90
33095;DHT22;19459;53.044;8.910;2023-05-10T12:18:52;16.80;99.90
33095;DHT22;19459;53.044;8.910;2023-05-10T12:21:20;16.40;99.90
33095;DHT22;19459;53.044;8.910;2023-05-10T12:23:51;16.20;99.90
33095;DHT22;19459;53.044;8.910;2023-05-10T12:26:18;16.10;99.90
33095;DHT22;19459;53.044;8.910;2023-05-10T12:28:47;16.10;99.90
33095;DHT22;19459;53.044;8.910;2023-05-10T12:31:13;16.20;99.90
33095;DHT22;19459;53.044;8.910;2023-05-10T12:33:40;16.30;99.90
33095;DHT22;19459;53.044;8.910;2023-05-10T12:36:12;16.40;99.90
33095;DHT22;19459;53.044;8.910;2023-05-10T12:38:44;16.60;99.90
33095;DHT22;19459;53.044;8.910;2023-05-10T12:41:17;16.50;99.90
33095;DHT22;19459;53.044;8.910;2023-05-10T12:43:43;16.70;99.90
33095;DHT22;19459;53.044;8.910;2023-05-10T12:46:17;16.60;99.90
33095;DHT22;19459;53.044;8.910;2023-05-10T12:48:44;16.50;99.90
33095;DHT22;19459;53.044;8.910;2023-05-10T12:51:12;16.40;99.90
33095;DHT22;19459;53.044;8.910;2023-05-10T12:53:40;16.70;99.90
33095;DHT22;19459;53.044;8.910;2023-05-10T12:56:06;17.00;99.90
33095;DHT22;19459;53.044;8.910;2023-05-10T12:58:32;17.20;99.90
33095;DHT22;19459;53.044;8.910;2023-05-10T13:00:59;17.00;99.90
33095;DHT22;19459;53.044;8.910;2023-05-10T13:03:25;17.10;99.90
33095;DHT22;19459;53.044;8.910;2023-05-10T13:05:51;17.00;99.90
33095;DHT22;19459;53.044;8.910;2023-05-10T13:08:17;17.00;99.90
33095;DHT22;19459;53.044;8.910;2023-05-10T13:10:42;17.10;99.90
33095;DHT22;19459;53.044;8.910;2023-05-10T13:13:08;17.20;99.90
33095;DHT22;19459;53.044;8.910;2023-05-10T13:15:35;17.50;99.90
33095;DHT22;19459;53.044;8.910;2023-05-10T13:18:01;17.80;99.90
33095;DHT22;19459;53.044;8.910;2023-05-10T13:20:27;17.90;99.90
33095;DHT22;19459;53.044;8.910;2023-05-10T13:22:53;17.50;99.90
33095;DHT22;19459;53.044;8.910;2023-05-10T13:25:19;17.40;99.90
33095;DHT22;19459;53.044;8.910;2023-05-10T13:27:47;17.50;99.90
33095;DHT22;19459;53.044;8.910;2023-05-10T13:30:13;17.30;99.90
33095;DHT22;19459;53.044;8.910;2023-05-10T13:32:39;17.20;99.90
33095;DHT22;19459;53.044;8.910;2023-05-10T13:35:05;17.10;99.90
33095;DHT22;19459;53.044;8.910;2023-05-10T13:37:31;17.10;99.90
33095;DHT22;19459;53.044;8.910;2023-05-10T13:40:00;17.20;99.90
33095;DHT22;19459;53.044;8.910;2023-05-10T13:42:26;17.10;99.90
33095;DHT22;19459;53.044;8.910;2023-05-10T13:44:52;17.10;99.90
33095;DHT22;19459;53.044;8.910;2023-05-10T13:47:18;17.00;99.90
33095;DHT22;19459;53.044;8.910;2023-05-10T13:49:44;16.90;99.90
33095;DHT22;19459;53.044;8.910;2023-05-10T13:52:10;16.80;99.90
33095;DHT22;19459;53.044;8.910;2023-05-10T13:54:36;17.00;99.90
33095;DHT22;19459;53.044;8.910;2023-05-10T13:57:03;17.00;99.90
33095;DHT22;19459;53.044;8.910;2023-05-10T13:59:29;17.00;99.90
33095;DHT22;19459;53.044;8.910;2023-05-10T14:01:57;17.20;99.90
33095;DHT22;19459;53.044;8.910;2023-05-10T14:04:23;17.30;99.90
33095;DHT22;19459;53.044;8.910;2023-05-10T14:06:49;17.30;99.90
33095;DHT22;19459;53.044;8.910;2023-05-10T14:09:15;17.50;99.90
33095;DHT22;19459;53.044;8.910;2023-05-10T14:11:41;17.10;99.90
33095;DHT22;19459;53.044;8.910;2023-05-10T14:14:09;17.10;99.90
33095;DHT22;19459;53.044;8.910;2023-05-10T14:16:35;17.30;99.90
33095;DHT22;19459;53.044;8.910;2023-05-10T14:19:00;17.50;99.90
33095;DHT22;19459;53.044;8.910;2023-05-10T14:21:27;17.60;99.90
33095;DHT22;19459;53.044;8.910;2023-05-10T14:23:54;17.60;99.90
33095;DHT22;19459;53.044;8.910;2023-05-10T14:26:21;17.70;99.90
33095;DHT22;19459;53.044;8.910;2023-05-10T14:28:47;17.90;99.90
33095;DHT22;19459;53.044;8.910;2023-05-10T14:31:13;18.20;99.90
33095;DHT22;19459;53.044;8.910;2023-05-10T14:33:40;18.60;99.90
33095;DHT22;19459;53.044;8.910;2023-05-10T14:36:06;19.10;99.90
33095;DHT22;19459;53.044;8.910;2023-05-10T14:38:32;19.50;99.90
33095;DHT22;19459;53.044;8.910;2023-05-10T14:40:58;20.20;99.90
33095;DHT22;19459;53.044;8.910;2023-05-10T14:43:24;20.30;99.90
33095;DHT22;19459;53.044;8.910;2023-05-10T14:45:50;20.60;99.90
33095;DHT22;19459;53.044;8.910;2023-05-10T14:48:16;20.80;99.90
33095;DHT22;19459;53.044;8.910;2023-05-10T14:50:43;20.40;99.90
33095;DHT22;19459;53.044;8.910;2023-05-10T14:53:09;19.70;99.90
33095;DHT22;19459;53.044;8.910;2023-05-10T14:55:35;19.50;99.90
33095;DHT22;19459;53.044;8.910;2023-05-10T14:58:04;19.20;99.90
33095;DHT22;19459;53.044;8.910;2023-05-10T15:00:30;19.10;99.90
33095;DHT22;19459;53.044;8.910;2023-05-10T15:02:57;18.90;99.90
33095;DHT22;19459;53.044;8.910;2023-05-10T15:05:23;18.90;99.90
33095;DHT22;19459;53.044;8.910;2023-05-10T15:07:48;18.80;99.90
33095;DHT22;19459;53.044;8.910;2023-05-10T15:10:14;18.80;99.90
33095;DHT22;19459;53.044;8.910;2023-05-10T15:12:40;18.90;99.90
33095;DHT22;19459;53.044;8.910;2023-05-10T15:15:07;19.20;99.90
33095;DHT22;19459;53.044;8.910;2023-05-10T15:17:33;19.20;99.90
33095;DHT22;19459;53.044;8.910;2023-05-10T15:19:59;19.00;99.90
33095;DHT22;19459;53.044;8.910;2023-05-10T15:22:25;18.80;99.90
33095;DHT22;19459;53.044;8.910;2023-05-10T15:24:53;18.80;99.90
33095;DHT22;19459;53.044;8.910;2023-05-10T15:27:19;18.70;99.90
33095;DHT22;19459;53.044;8.910;2023-05-10T15:29:45;18.80;99.90
33095;DHT22;19459;53.044;8.910;2023-05-10T15:32:11;18.80;99.90
33095;DHT22;19459;53.044;8.910;2023-05-10T15:34:37;18.70;99.90
33095;DHT22;19459;53.044;8.910;2023-05-10T15:37:03;18.70;99.90
33095;DHT22;19459;53.044;8.910;2023-05-10T15:39:31;18.60;99.90
33095;DHT22;19459;53.044;8.910;2023-05-10T15:41:57;18.70;99.90
33095;DHT22;19459;53.044;8.910;2023-05-10T15:44:23;18.90;99.90
33095;DHT22;19459;53.044;8.910;2023-05-10T15:46:49;18.90;99.90
33095;DHT22;19459;53.044;8.910;2023-05-10T15:49:15;18.90;99.90
33095;DHT22;19459;53.044;8.910;2023-05-10T15:51:41;19.00;99.90
33095;DHT22;19459;53.044;8.910;2023-05-10T15:54:07;19.20;99.90
33095;DHT22;19459;53.044;8.910;2023-05-10T15:56:34;19.10;99.90
33095;DHT22;19459;53.044;8.910;2023-05-10T15:59:00;19.20;99.90
33095;DHT22;19459;53.044;8.910;2023-05-10T16:01:26;19.10;99.90
33095;DHT22;19459;53.044;8.910;2023-05-10T16:03:52;19.00;99.90
33095;DHT22;19459;53.044;8.910;2023-05-10T16:06:18;18.80;99.90
33095;DHT22;19459;53.044;8.910;2023-05-10T16:08:44;18.50;99.90
33095;DHT22;19459;53.044;8.910;2023-05-10T16:11:09;18.40;99.90
33095;DHT22;19459;53.044;8.910;2023-05-10T16:13:35;18.40;99.90
33095;DHT22;19459;53.044;8.910;2023-05-10T16:16:01;18.40;99.90
33095;DHT22;19459;53.044;8.910;2023-05-10T16:18:27;18.40;99.90
33095;DHT22;19459;53.044;8.910;2023-05-10T16:20:53;18.30;99.90
33095;DHT22;19459;53.044;8.910;2023-05-10T16:23:19;18.00;99.90
33095;DHT22;19459;53.044;8.910;2023-05-10T16:25:45;17.80;99.90
33095;DHT22;19459;53.044;8.910;2023-05-10T16:28:14;17.60;99.90
33095;DHT22;19459;53.044;8.910;2023-05-10T16:30:40;17.70;99.90
33095;DHT22;19459;53.044;8.910;2023-05-10T16:33:05;17.80;99.90
33095;DHT22;19459;53.044;8.910;2023-05-10T16:35:31;17.90;99.90
33095;DHT22;19459;53.044;8.910;2023-05-10T16:37:57;17.90;99.90
33095;DHT22;19459;53.044;8.910;2023-05-10T16:40:23;18.10;99.90
33095;DHT22;19459;53.044;8.910;2023-05-10T16:42:48;18.20;99.90
33095;DHT22;19459;53.044;8.910;2023-05-10T16:45:14;18.30;99.90
33095;DHT22;19459;53.044;8.910;2023-05-10T16:47:41;18.40;99.90
33095;DHT22;19459;53.044;8.910;2023-05-10T16:50:07;18.70;99.90
33095;DHT22;19459;53.044;8.910;2023-05-10T16:52:34;18.70;99.90
33095;DHT22;19459;53.044;8.910;2023-05-10T16:55:00;18.70;99.90
33095;DHT22;19459;53.044;8.910;2023-05-10T16:57:27;18.80;99.90
33095;DHT22;19459;53.044;8.910;2023-05-10T17:00:10;18.80;99.90
33095;DHT22;19459;53.044;8.910;2023-05-10T17:02:36;18.80;99.90
33095;DHT22;19459;53.044;8.910;2023-05-10T17:05:03;18.70;99.90
33095;DHT22;19459;53.044;8.910;2023-05-10T17:07:29;18.20;99.90
33095;DHT22;19459;53.044;8.910;2023-05-10T17:09:55;18.00;99.90
33095;DHT22;19459;53.044;8.910;2023-05-10T17:12:23;17.80;99.90
33095;DHT22;19459;53.044;8.910;2023-05-10T17:14:49;17.70;99.90
33095;DHT22;19459;53.044;8.910;2023-05-10T17:17:15;17.40;99.90
33095;DHT22;19459;53.044;8.910;2023-05-10T17:19:41;17.40;99.90
33095;DHT22;19459;53.044;8.910;2023-05-10T17:22:10;17.40;99.90
33095;DHT22;19459;53.044;8.910;2023-05-10T17:24:37;17.50;99.90
33095;DHT22;19459;53.044;8.910;2023-05-10T17:27:02;17.60;99.90
33095;DHT22;19459;53.044;8.910;2023-05-10T17:29:28;17.80;99.90
33095;DHT22;19459;53.044;8.910;2023-05-10T17:31:56;17.80;99.90
33095;DHT22;19459;53.044;8.910;2023-05-10T17:34:23;17.70;99.90
33095;DHT22;19459;53.044;8.910;2023-05-10T17:36:48;17.60;99.90
33095;DHT22;19459;53.044;8.910;2023-05-10T17:39:14;17.40;99.90
33095;DHT22;19459;53.044;8.910;2023-05-10T17:41:40;17.50;99.90
33095;DHT22;19459;53.044;8.910;2023-05-10T17:44:06;17.40;99.90
33095;DHT22;19459;53.044;8.910;2023-05-10T17:46:32;17.40;99.90
33095;DHT22;19459;53.044;8.910;2023-05-10T17:48:58;17.40;99.90